createdAt,value
2023-02-05T00:01:21.215Z,8.18
2023-02-05T00:03:47.855Z,5.70
2023-02-05T00:06:14.437Z,4.88
2023-02-05T00:08:41.016Z,4.85
2023-02-05T00:11:09.472Z,7.32
2023-02-05T00:13:37.325Z,6.53
2023-02-05T00:16:11.008Z,7.40
2023-02-05T00:18:37.749Z,5.18
2023-02-05T00:21:06.060Z,5.90
2023-02-05T00:23:33.688Z,6.03
2023-02-05T00:26:00.214Z,7.05
2023-02-05T00:28:26.757Z,8.57
2023-02-05T00:30:53.482Z,5.65
2023-02-05T00:33:21.890Z,6.65
2023-02-05T00:35:49.163Z,9.30
2023-02-05T00:38:15.763Z,9.45
2023-02-05T00:40:42.528Z,6.88
2023-02-05T00:43:09.449Z,6.95
2023-02-05T00:45:36.484Z,11.40
2023-02-05T00:48:04.486Z,7.53
2023-02-05T00:50:31.475Z,6.75
2023-02-05T00:52:57.969Z,6.82
2023-02-05T00:55:24.512Z,7.20
2023-02-05T00:57:51.093Z,6.97
2023-02-05T01:00:18.467Z,6.50
2023-02-05T01:02:45.048Z,10.93
2023-02-05T01:05:11.853Z,5.35
2023-02-05T01:07:38.367Z,7.75
2023-02-05T01:10:06.274Z,8.18
2023-02-05T01:12:33.332Z,9.25
2023-02-05T01:15:00.909Z,9.35
2023-02-05T01:17:27.484Z,9.00
2023-02-05T01:19:54.026Z,7.47
2023-02-05T01:22:20.605Z,9.07
2023-02-05T01:24:47.315Z,6.20
2023-02-05T01:27:13.857Z,7.32
2023-02-05T01:29:40.447Z,6.78
2023-02-05T01:32:07.027Z,5.60
2023-02-05T01:34:33.568Z,10.07
2023-02-05T01:37:00.149Z,12.32
2023-02-05T01:39:26.720Z,8.25
2023-02-05T01:41:53.336Z,8.88
2023-02-05T01:44:25.261Z,8.63
2023-02-05T01:46:53.262Z,9.93
2023-02-05T01:49:38.714Z,9.15
2023-02-05T01:52:12.140Z,8.77
2023-02-05T01:54:42.177Z,10.43
2023-02-05T01:57:11.850Z,8.15
2023-02-05T01:59:40.712Z,11.23
2023-02-05T02:02:07.918Z,9.80
2023-02-05T02:04:38.561Z,9.88
2023-02-05T02:07:05.847Z,9.15
2023-02-05T02:09:33.982Z,15.77
2023-02-05T02:12:01.045Z,10.60
2023-02-05T02:14:29.389Z,9.82
2023-02-05T02:16:55.939Z,13.10
2023-02-05T02:19:32.891Z,10.00
2023-02-05T02:22:12.980Z,12.70
2023-02-05T02:24:51.305Z,11.02
2023-02-05T02:27:32.860Z,10.73
2023-02-05T02:30:09.150Z,9.50
2023-02-05T02:32:47.366Z,8.30
2023-02-05T02:35:19.841Z,9.43
2023-02-05T02:38:01.269Z,10.73
2023-02-05T02:40:37.121Z,9.40
2023-02-05T02:43:09.312Z,10.52
2023-02-05T02:45:42.116Z,9.57
2023-02-05T02:48:10.645Z,8.52
2023-02-05T02:50:41.469Z,12.00
2023-02-05T02:53:20.958Z,10.52
2023-02-05T02:55:49.115Z,10.68
2023-02-05T02:58:20.434Z,9.77
2023-02-05T03:00:48.061Z,11.63
2023-02-05T03:03:17.642Z,9.48
2023-02-05T03:05:45.635Z,11.27
2023-02-05T03:08:21.651Z,9.05
2023-02-05T03:10:53.038Z,9.27
2023-02-05T03:13:19.918Z,14.02
2023-02-05T03:15:52.132Z,9.52
2023-02-05T03:18:22.900Z,11.93
2023-02-05T03:20:58.151Z,11.02
2023-02-05T03:23:27.032Z,8.10
2023-02-05T03:25:53.837Z,9.27
2023-02-05T03:28:25.942Z,10.55
2023-02-05T03:30:59.011Z,8.30
2023-02-05T03:33:33.475Z,7.78
2023-02-05T03:36:21.018Z,10.43
2023-02-05T03:38:57.060Z,9.52
2023-02-05T03:41:53.619Z,9.07
2023-02-05T03:44:54.686Z,9.98
2023-02-05T03:47:37.986Z,8.75
2023-02-05T03:50:07.479Z,9.68
2023-02-05T03:52:37.737Z,8.48
2023-02-05T03:55:11.330Z,8.88
2023-02-05T03:57:43.466Z,8.32
2023-02-05T04:00:12.029Z,12.65
2023-02-05T04:02:43.350Z,10.52
2023-02-05T04:05:13.449Z,11.35
2023-02-05T04:07:41.756Z,8.68
2023-02-05T04:10:10.019Z,8.20
2023-02-05T04:12:37.349Z,8.05
2023-02-05T04:15:07.412Z,10.63
2023-02-05T04:17:34.983Z,8.45
2023-02-05T04:20:02.219Z,7.35
2023-02-05T04:22:30.058Z,7.78
2023-02-05T04:24:57.098Z,9.57
2023-02-05T04:27:23.716Z,7.93
2023-02-05T04:29:50.845Z,11.38
2023-02-05T04:32:17.487Z,7.25
2023-02-05T04:34:44.064Z,8.45
2023-02-05T04:37:12.354Z,7.40
2023-02-05T04:39:39.601Z,9.80
2023-02-05T04:42:06.151Z,8.13
2023-02-05T04:44:32.741Z,8.80
2023-02-05T04:46:59.752Z,9.20
2023-02-05T04:49:26.323Z,10.77
2023-02-05T04:51:52.827Z,7.95
2023-02-05T04:54:19.362Z,8.70
2023-02-05T04:56:46.988Z,9.15
2023-02-05T04:59:13.531Z,7.10
2023-02-05T05:01:40.751Z,8.75
2023-02-05T05:04:07.328Z,8.02
2023-02-05T05:06:33.878Z,9.52
2023-02-05T05:09:00.417Z,8.73
2023-02-05T05:11:26.967Z,7.40
2023-02-05T05:13:53.503Z,7.10
2023-02-05T05:16:20.169Z,5.80
2023-02-05T05:18:46.863Z,10.40
2023-02-05T05:21:13.472Z,8.95
2023-02-05T05:23:40.020Z,6.47
2023-02-05T05:26:08.296Z,7.72
2023-02-05T05:28:35.554Z,8.02
2023-02-05T05:31:11.043Z,8.18
2023-02-05T05:33:37.928Z,11.35
2023-02-05T05:36:05.706Z,9.32
2023-02-05T05:38:32.274Z,6.10
2023-02-05T05:41:17.609Z,7.28
2023-02-05T05:43:46.969Z,9.18
2023-02-05T05:46:26.652Z,7.18
2023-02-05T05:48:55.753Z,8.95
2023-02-05T05:51:23.109Z,9.05
2023-02-05T05:53:49.962Z,8.00
2023-02-05T05:56:17.080Z,10.85
2023-02-05T05:58:43.705Z,6.68
2023-02-05T06:01:11.116Z,6.82
2023-02-05T06:03:37.691Z,8.02
2023-02-05T06:06:05.978Z,6.60
2023-02-05T06:08:32.922Z,7.35
2023-02-05T06:10:59.814Z,8.68
2023-02-05T06:13:28.213Z,7.90
2023-02-05T06:15:54.971Z,7.68
2023-02-05T06:18:23.699Z,9.23
2023-02-05T06:20:50.750Z,8.48
2023-02-05T06:23:17.371Z,7.50
2023-02-05T06:25:43.957Z,7.60
2023-02-05T06:28:10.585Z,8.05
2023-02-05T06:30:37.303Z,9.20
2023-02-05T06:33:03.939Z,8.00
2023-02-05T06:35:30.461Z,9.23
2023-02-05T06:37:57.017Z,8.35
2023-02-05T06:40:25.860Z,9.98
2023-02-05T06:42:53.447Z,8.38
2023-02-05T06:45:19.988Z,7.63
2023-02-05T06:47:46.612Z,7.07
2023-02-05T06:50:13.422Z,8.18
2023-02-05T06:52:40.011Z,6.60
2023-02-05T06:55:06.691Z,8.43
2023-02-05T06:57:33.869Z,6.80
2023-02-05T07:00:00.435Z,9.13
2023-02-05T07:02:27.203Z,9.10
2023-02-05T07:04:53.754Z,9.93
2023-02-05T07:07:20.311Z,8.73
2023-02-05T07:09:46.919Z,6.97
2023-02-05T07:12:13.426Z,7.10
2023-02-05T07:14:40.779Z,10.35
2023-02-05T07:17:08.015Z,9.90
2023-02-05T07:19:35.094Z,7.53
2023-02-05T07:22:01.703Z,9.15
2023-02-05T07:24:28.218Z,6.60
2023-02-05T07:26:54.721Z,6.85
2023-02-05T07:29:21.558Z,7.97
2023-02-05T07:31:51.152Z,6.53
2023-02-05T07:34:17.803Z,7.30
2023-02-05T07:36:44.455Z,6.95
2023-02-05T07:39:11.171Z,7.63
2023-02-05T07:41:37.663Z,8.35
2023-02-05T07:44:05.141Z,5.90
2023-02-05T07:46:31.774Z,5.68
2023-02-05T07:48:58.439Z,6.32
2023-02-05T07:51:25.982Z,10.32
2023-02-05T07:53:53.326Z,9.73
2023-02-05T07:56:23.003Z,6.95
2023-02-05T07:58:49.536Z,6.78
2023-02-05T08:01:16.205Z,8.30
2023-02-05T08:03:43.282Z,7.25
2023-02-05T08:06:13.899Z,8.45
2023-02-05T08:08:40.459Z,5.93
2023-02-05T08:11:07.284Z,6.93
2023-02-05T08:13:34.193Z,7.55
2023-02-05T08:16:05.260Z,7.88
2023-02-05T08:18:31.904Z,7.82
2023-02-05T08:20:58.511Z,5.68
2023-02-05T08:23:25.156Z,6.57
2023-02-05T08:25:55.985Z,8.82
2023-02-05T08:30:49.107Z,6.80
2023-02-05T08:33:15.789Z,8.02
2023-02-05T08:35:42.337Z,10.05
2023-02-05T08:38:08.871Z,7.60
2023-02-05T08:40:36.163Z,7.93
2023-02-05T08:43:02.778Z,8.02
2023-02-05T08:45:29.957Z,6.80
2023-02-05T08:47:56.721Z,8.43
2023-02-05T08:50:23.498Z,7.38
2023-02-05T08:52:50.061Z,7.63
2023-02-05T08:55:26.549Z,5.50
2023-02-05T08:57:53.066Z,5.55
2023-02-05T09:00:21.104Z,5.70
2023-02-05T09:02:47.769Z,5.57
2023-02-05T09:05:14.303Z,7.20
2023-02-05T09:07:41.042Z,6.68
2023-02-05T09:10:09.669Z,7.53
2023-02-05T09:12:36.388Z,5.07
2023-02-05T09:15:02.917Z,5.13
2023-02-05T09:17:29.430Z,7.55
2023-02-05T09:19:56.200Z,6.25
2023-02-05T09:22:22.822Z,7.88
2023-02-05T09:24:49.471Z,6.30
2023-02-05T09:27:16.046Z,5.88
2023-02-05T09:29:42.889Z,7.70
2023-02-05T09:32:09.392Z,6.25
2023-02-05T09:34:35.913Z,8.50
2023-02-05T09:37:02.443Z,6.97
2023-02-05T09:40:13.093Z,6.75
2023-02-05T09:42:32.250Z,6.00
2023-02-05T09:45:20.694Z,8.35
2023-02-05T09:48:02.402Z,4.60
2023-02-05T09:50:30.502Z,7.03
2023-02-05T09:53:01.978Z,5.82
2023-02-05T09:55:34.756Z,6.47
2023-02-05T09:58:12.381Z,6.10
2023-02-05T10:01:00.975Z,5.85
2023-02-05T10:03:42.456Z,5.07
2023-02-05T10:06:27.006Z,7.43
2023-02-05T10:09:04.071Z,5.18
2023-02-05T10:11:49.263Z,6.28
2023-02-05T10:14:33.930Z,4.65
2023-02-05T10:17:38.367Z,8.23
2023-02-05T10:20:27.343Z,6.72
2023-02-05T10:23:09.376Z,5.05
2023-02-05T10:25:54.968Z,4.93
2023-02-05T10:28:40.737Z,6.63
2023-02-05T10:31:32.008Z,5.18
2023-02-05T10:34:46.441Z,4.78
2023-02-05T10:37:18.900Z,5.97
2023-02-05T10:39:47.086Z,6.22
2023-02-05T10:42:24.068Z,4.78
2023-02-05T10:44:56.502Z,5.10
2023-02-05T10:47:43.570Z,5.28
2023-02-05T10:50:43.609Z,4.35
2023-02-05T10:53:10.131Z,4.90
2023-02-05T10:55:36.830Z,6.47
2023-02-05T10:58:26.010Z,9.25
2023-02-05T11:00:52.548Z,5.20
2023-02-05T11:03:19.845Z,5.82
2023-02-05T11:05:47.173Z,7.00
2023-02-05T11:08:34.852Z,8.20
2023-02-05T11:11:02.242Z,7.43
2023-02-05T11:13:30.134Z,6.47
2023-02-05T11:16:05.004Z,5.85
2023-02-05T11:18:55.743Z,7.13
2023-02-05T11:21:22.254Z,7.75
2023-02-05T11:23:58.063Z,6.25
2023-02-05T11:26:27.937Z,7.68
2023-02-05T11:28:54.610Z,7.32
2023-02-05T11:31:25.806Z,5.70
2023-02-05T11:34:09.331Z,5.68
2023-02-05T11:36:37.609Z,6.28
2023-02-05T11:39:05.522Z,4.50
2023-02-05T11:41:53.877Z,6.85
2023-02-05T11:44:32.250Z,6.53
2023-02-05T11:47:00.224Z,5.72
2023-02-05T11:49:32.485Z,6.20
2023-02-05T11:51:59.179Z,4.82
2023-02-05T11:54:31.672Z,5.40
2023-02-05T11:57:06.646Z,6.03
2023-02-05T11:59:34.397Z,6.93
2023-02-05T12:02:29.558Z,5.70
2023-02-05T12:05:25.052Z,5.05
2023-02-05T12:08:01.600Z,6.90
2023-02-05T12:11:00.957Z,6.32
2023-02-05T12:14:05.243Z,5.32
2023-02-05T12:16:48.827Z,5.55
2023-02-05T12:19:20.853Z,7.03
2023-02-05T12:21:59.856Z,5.32
2023-02-05T12:24:43.429Z,6.85
2023-02-05T12:27:34.244Z,3.65
2023-02-05T12:30:15.991Z,5.93
2023-02-05T12:33:13.463Z,6.22
2023-02-05T12:35:58.291Z,6.57
2023-02-05T12:38:38.079Z,4.40
2023-02-05T12:41:26.528Z,6.25
2023-02-05T12:43:56.339Z,4.50
2023-02-05T12:46:46.327Z,5.10
2023-02-05T12:49:35.138Z,4.50
2023-02-05T12:52:18.679Z,3.92
2023-02-05T12:54:57.907Z,6.18
2023-02-05T12:57:29.084Z,5.65
2023-02-05T12:59:58.900Z,4.50
2023-02-05T13:02:38.889Z,6.43
2023-02-05T13:05:22.132Z,6.00
2023-02-05T13:07:54.182Z,6.43
2023-02-05T13:10:26.906Z,4.60
2023-02-05T13:12:59.541Z,4.43
2023-02-05T13:15:30.681Z,4.72
2023-02-05T13:18:02.164Z,5.65
2023-02-05T13:20:51.810Z,7.03
2023-02-05T13:23:37.172Z,5.57
2023-02-05T13:26:16.297Z,6.05
2023-02-05T13:28:47.465Z,6.78
2023-02-05T13:31:31.273Z,6.97
2023-02-05T13:34:03.448Z,3.92
2023-02-05T13:36:41.317Z,5.38
2023-02-05T13:40:00.573Z,7.45
2023-02-05T13:42:43.715Z,3.75
2023-02-05T13:45:45.616Z,6.60
2023-02-05T13:48:25.684Z,4.13
2023-02-05T13:51:29.532Z,3.45
2023-02-05T13:54:23.214Z,6.05
2023-02-05T13:57:15.406Z,5.60
2023-02-05T13:59:46.556Z,5.75
2023-02-05T14:02:37.657Z,3.45
2023-02-05T14:07:35.881Z,5.72
2023-02-05T14:10:02.715Z,5.82
2023-02-05T14:12:31.082Z,5.07
2023-02-05T14:15:15.578Z,4.15
2023-02-05T14:17:45.315Z,4.78
2023-02-05T14:20:24.036Z,5.18
2023-02-05T14:23:03.028Z,4.57
2023-02-05T14:25:36.332Z,5.70
2023-02-05T14:28:04.369Z,3.65
2023-02-05T14:30:30.946Z,5.47
2023-02-05T14:33:02.592Z,3.97
2023-02-05T14:35:31.549Z,5.05
2023-02-05T14:38:22.527Z,4.47
2023-02-05T14:41:05.242Z,7.45
2023-02-05T14:43:34.186Z,4.32
2023-02-05T14:46:07.831Z,4.93
2023-02-05T14:48:39.098Z,6.40
2023-02-05T14:51:25.915Z,4.00
2023-02-05T14:54:15.448Z,4.15
2023-02-05T14:56:46.770Z,5.97
2023-02-05T14:59:29.835Z,6.53
2023-02-05T15:01:57.384Z,5.72
2023-02-05T15:04:28.348Z,5.53
2023-02-05T15:09:40.203Z,4.82
2023-02-05T15:12:25.042Z,5.53
2023-02-05T15:14:52.212Z,4.55
2023-02-05T15:17:27.583Z,5.10
2023-02-05T15:19:56.373Z,6.88
2023-02-05T15:22:36.973Z,6.72
2023-02-05T15:25:09.606Z,5.43
2023-02-05T15:27:44.910Z,4.00
2023-02-05T15:30:18.510Z,6.30
2023-02-05T15:32:52.252Z,4.45
2023-02-05T15:35:25.737Z,4.03
2023-02-05T15:37:57.713Z,6.88
2023-02-05T15:40:27.494Z,6.05
2023-02-05T15:42:59.062Z,6.25
2023-02-05T15:45:34.415Z,6.50
2023-02-05T15:48:03.634Z,6.63
2023-02-05T15:50:30.793Z,4.22
2023-02-05T15:52:57.874Z,4.07
2023-02-05T15:55:26.950Z,4.30
2023-02-05T15:57:58.060Z,5.90
2023-02-05T16:00:27.419Z,7.15
2023-02-05T16:02:56.882Z,7.15
2023-02-05T16:05:24.032Z,5.22
2023-02-05T16:07:58.783Z,4.53
2023-02-05T16:10:27.685Z,4.68
2023-02-05T16:13:20.952Z,6.53
2023-02-05T16:16:08.343Z,6.40
2023-02-05T16:18:38.654Z,7.35
2023-02-05T16:21:14.148Z,6.78
2023-02-05T16:23:44.429Z,7.63
2023-02-05T16:26:19.645Z,6.35
2023-02-05T16:28:48.856Z,6.55
2023-02-05T16:31:18.564Z,6.82
2023-02-05T16:33:56.556Z,9.77
2023-02-05T16:36:25.018Z,6.15
2023-02-05T16:38:59.689Z,5.88
2023-02-05T16:41:34.984Z,9.93
2023-02-05T16:44:06.692Z,5.68
2023-02-05T16:46:35.064Z,6.00
2023-02-05T16:49:22.089Z,6.38
2023-02-05T16:51:48.515Z,5.60
2023-02-05T16:54:18.014Z,6.65
2023-02-05T16:56:48.897Z,7.45
2023-02-05T17:01:46.158Z,9.88
2023-02-05T17:04:32.125Z,8.10
2023-02-05T17:07:00.261Z,7.15
2023-02-05T17:09:33.884Z,6.80
2023-02-05T17:12:22.864Z,6.60
2023-02-05T17:14:57.514Z,8.15
2023-02-05T17:17:25.357Z,9.18
2023-02-05T17:20:16.877Z,5.18
2023-02-05T17:22:58.312Z,10.15
2023-02-05T17:25:25.533Z,8.38
2023-02-05T17:27:52.124Z,8.57
2023-02-05T17:30:19.635Z,8.77
2023-02-05T17:32:46.995Z,7.72
2023-02-05T17:35:14.870Z,11.13
2023-02-05T17:37:41.447Z,7.80
2023-02-05T17:40:08.889Z,8.75
2023-02-05T17:42:35.500Z,9.02
2023-02-05T17:45:02.031Z,9.68
2023-02-05T17:47:28.616Z,8.52
2023-02-05T17:49:55.262Z,8.27
2023-02-05T17:52:21.745Z,7.80
2023-02-05T17:54:48.370Z,8.38
2023-02-05T17:57:15.313Z,7.72
2023-02-05T17:59:44.690Z,9.32
2023-02-05T18:02:12.408Z,7.47
2023-02-05T18:04:39.440Z,6.50
2023-02-05T18:07:15.363Z,8.88
2023-02-05T18:09:41.933Z,10.45
2023-02-05T18:12:08.448Z,10.15
2023-02-05T18:14:34.926Z,10.38
2023-02-05T18:17:01.725Z,10.45
2023-02-05T18:19:29.470Z,11.07
2023-02-05T18:21:55.966Z,10.07
2023-02-05T18:24:22.471Z,9.68
2023-02-05T18:26:52.619Z,10.73
2023-02-05T18:29:21.427Z,12.43
2023-02-05T18:31:48.742Z,11.32
2023-02-05T18:34:15.519Z,9.65
2023-02-05T18:36:42.053Z,10.85
2023-02-05T18:39:09.832Z,12.52
2023-02-05T18:41:37.062Z,11.05
2023-02-05T18:44:03.913Z,9.55
2023-02-05T18:46:30.627Z,10.05
2023-02-05T18:48:57.168Z,10.90
2023-02-05T18:51:23.865Z,10.02
2023-02-05T18:53:50.454Z,11.40
2023-02-05T18:56:22.223Z,10.45
2023-02-05T18:59:01.397Z,9.18
2023-02-05T19:01:30.103Z,8.73
2023-02-05T19:04:01.128Z,11.65
2023-02-05T19:06:27.930Z,11.73
2023-02-05T19:08:56.449Z,9.27
2023-02-05T19:11:24.581Z,13.73
2023-02-05T19:13:59.225Z,12.68
2023-02-05T19:16:27.407Z,15.32
2023-02-05T19:18:53.960Z,19.27
2023-02-05T19:21:21.347Z,20.60
2023-02-05T19:23:53.554Z,19.55
2023-02-05T19:26:22.556Z,20.48
2023-02-05T19:28:55.964Z,20.52
2023-02-05T19:31:27.736Z,17.88
2023-02-05T19:33:55.332Z,15.23
2023-02-05T19:36:22.585Z,16.13
2023-02-05T19:38:49.420Z,17.05
2023-02-05T19:41:20.728Z,15.23
2023-02-05T19:43:55.112Z,16.20
2023-02-05T19:46:28.552Z,14.60
2023-02-05T19:48:56.277Z,15.65
2023-02-05T19:51:22.967Z,15.50
2023-02-05T19:53:49.613Z,12.85
2023-02-05T19:56:21.600Z,15.93
2023-02-05T19:58:50.644Z,14.35
2023-02-05T20:01:23.741Z,14.35
2023-02-05T20:03:55.608Z,13.43
2023-02-05T20:06:23.755Z,12.05
2023-02-05T20:08:50.407Z,21.33
2023-02-05T20:11:17.964Z,16.75
2023-02-05T20:13:45.119Z,16.08
2023-02-05T20:16:18.617Z,13.27
2023-02-05T20:18:45.550Z,12.65
2023-02-05T20:21:18.808Z,14.05
2023-02-05T20:23:46.164Z,13.93
2023-02-05T20:26:14.369Z,14.80
2023-02-05T20:29:00.558Z,13.80
2023-02-05T20:31:34.771Z,16.60
2023-02-05T20:34:06.080Z,14.43
2023-02-05T20:36:33.967Z,17.15
2023-02-05T20:39:02.868Z,16.65
2023-02-05T20:41:29.451Z,13.27
2023-02-05T20:43:57.143Z,16.48
2023-02-05T20:46:24.067Z,14.20
2023-02-05T20:48:50.879Z,14.85
2023-02-05T20:51:18.964Z,18.45
2023-02-05T20:53:45.837Z,14.52
2023-02-05T20:56:18.371Z,17.08
2023-02-05T20:58:44.910Z,14.07
2023-02-05T21:01:15.794Z,18.38
2023-02-05T21:06:10.817Z,18.60
2023-02-05T21:08:43.349Z,21.52
2023-02-05T21:11:10.296Z,18.98
2023-02-05T21:13:37.200Z,16.02
2023-02-05T21:16:04.290Z,18.65
2023-02-05T21:18:31.005Z,19.00
2023-02-05T21:21:12.414Z,16.95
2023-02-05T21:23:39.051Z,17.17
2023-02-05T21:26:06.337Z,17.00
2023-02-05T21:28:33.397Z,19.92
2023-02-05T21:31:09.330Z,17.27
2023-02-05T21:33:36.232Z,17.33
2023-02-05T21:36:04.622Z,17.02
2023-02-05T21:38:34.648Z,18.75
2023-02-05T21:41:06.864Z,19.20
2023-02-05T21:43:33.570Z,16.00
2023-02-05T21:46:08.458Z,19.48
2023-02-05T21:48:35.410Z,19.90
2023-02-05T21:51:07.348Z,17.80
2023-02-05T21:53:33.952Z,18.35
2023-02-05T21:56:02.476Z,19.75
2023-02-05T21:58:31.916Z,21.65
2023-02-05T22:01:13.285Z,22.88
2023-02-05T22:03:41.011Z,24.30
2023-02-05T22:06:08.595Z,23.75
2023-02-05T22:08:36.357Z,23.35
2023-02-05T22:11:05.430Z,23.70
2023-02-05T22:13:36.410Z,21.20
2023-02-05T22:16:08.423Z,25.35
2023-02-05T22:18:35.435Z,25.40
2023-02-05T22:21:10.038Z,27.23
2023-02-05T22:23:36.655Z,24.90
2023-02-05T22:26:03.303Z,23.35
2023-02-05T22:28:30.147Z,27.08
2023-02-05T22:31:05.310Z,27.17
2023-02-05T22:33:32.628Z,22.05
2023-02-05T22:35:59.743Z,20.42
2023-02-05T22:38:27.055Z,24.13
2023-02-05T22:40:53.922Z,23.25
2023-02-05T22:43:21.199Z,29.30
2023-02-05T22:45:47.737Z,26.20
2023-02-05T22:48:14.365Z,24.88
2023-02-05T22:50:41.729Z,23.95
2023-02-05T22:53:08.899Z,27.02
2023-02-05T22:55:36.584Z,27.38
2023-02-05T22:58:04.110Z,30.38
2023-02-05T23:00:31.384Z,28.42
2023-02-05T23:02:59.427Z,26.50
2023-02-05T23:05:30.312Z,25.13
2023-02-05T23:10:23.988Z,23.48
2023-02-05T23:12:50.591Z,25.70
2023-02-05T23:15:17.223Z,26.08
2023-02-05T23:17:43.751Z,25.08
2023-02-05T23:20:10.902Z,26.63
2023-02-05T23:22:37.460Z,23.15
2023-02-05T23:25:05.520Z,20.50
2023-02-05T23:27:32.840Z,19.13
2023-02-05T23:29:59.965Z,19.02
2023-02-05T23:32:26.590Z,23.00
2023-02-05T23:34:53.096Z,19.30
2023-02-05T23:37:19.615Z,19.30
2023-02-05T23:39:46.237Z,21.63
2023-02-05T23:42:12.892Z,20.08
2023-02-05T23:44:39.389Z,20.70
2023-02-05T23:47:05.949Z,20.60
2023-02-05T23:49:32.461Z,18.98
2023-02-05T23:51:59.182Z,24.15
2023-02-05T23:54:25.713Z,22.33
2023-02-05T23:56:52.546Z,20.05
2023-02-05T23:59:19.247Z,22.00
